createdAt,value
2023-01-05T00:01:39.461Z,81.17
2023-01-05T00:04:41.271Z,82.20
2023-01-05T00:07:43.378Z,85.53
2023-01-05T00:11:03.650Z,89.53
2023-01-05T00:14:24.498Z,91.90
2023-01-05T00:17:44.769Z,93.43
2023-01-05T00:21:05.069Z,98.23
2023-01-05T00:24:06.891Z,112.57
2023-01-05T00:27:08.568Z,98.50
2023-01-05T00:30:11.496Z,106.70
2023-01-05T00:33:14.135Z,103.10
2023-01-05T00:36:15.693Z,105.00
2023-01-05T00:39:17.296Z,94.53
2023-01-05T00:42:18.920Z,102.23
2023-01-05T00:45:22.259Z,95.77
2023-01-05T00:48:23.925Z,101.67
2023-01-05T00:51:25.487Z,88.87
2023-01-05T00:54:27.213Z,86.07
2023-01-05T00:57:28.862Z,90.50
2023-01-05T01:00:30.823Z,85.67
2023-01-05T01:03:32.494Z,86.60
2023-01-05T01:06:34.903Z,85.03
2023-01-05T01:09:37.442Z,79.73
2023-01-05T01:12:39.021Z,78.60
2023-01-05T01:15:40.690Z,78.77
2023-01-05T01:18:42.454Z,73.67
2023-01-05T01:21:44.317Z,73.83
2023-01-05T01:24:46.032Z,81.13
2023-01-05T01:27:47.672Z,72.90
2023-01-05T01:30:49.634Z,71.00
2023-01-05T01:33:51.344Z,73.20
2023-01-05T01:36:54.887Z,69.20
2023-01-05T01:39:59.074Z,74.00
2023-01-05T01:43:01.499Z,71.57
2023-01-05T01:46:03.238Z,70.77
2023-01-05T01:49:08.890Z,75.57
2023-01-05T01:52:10.661Z,76.00
2023-01-05T01:55:12.475Z,76.53
2023-01-05T01:58:16.567Z,72.73
2023-01-05T02:01:19.123Z,72.57
2023-01-05T02:04:21.211Z,72.37
2023-01-05T02:07:24.772Z,77.40
2023-01-05T02:10:45.249Z,75.50
2023-01-05T02:13:59.417Z,75.10
2023-01-05T02:17:16.585Z,69.67
2023-01-05T02:20:27.377Z,66.60
2023-01-05T02:23:49.161Z,68.37
2023-01-05T02:27:09.499Z,65.63
2023-01-05T02:30:14.223Z,70.83
2023-01-05T02:33:36.191Z,65.87
2023-01-05T02:36:42.691Z,65.17
2023-01-05T02:40:03.003Z,61.40
2023-01-05T02:43:10.859Z,60.13
2023-01-05T02:46:12.627Z,63.47
2023-01-05T02:49:16.708Z,65.33
2023-01-05T02:52:18.776Z,60.13
2023-01-05T02:55:23.079Z,59.27
2023-01-05T02:58:27.643Z,55.67
2023-01-05T03:01:31.549Z,61.00
2023-01-05T03:04:33.436Z,60.23
2023-01-05T03:07:39.677Z,64.93
2023-01-05T03:11:23.276Z,64.53
2023-01-05T03:14:32.838Z,63.83
2023-01-05T03:17:44.459Z,58.60
2023-01-05T03:20:50.652Z,61.37
2023-01-05T03:24:12.234Z,62.27
2023-01-05T03:27:32.566Z,63.27
2023-01-05T03:31:18.026Z,66.33
2023-01-05T03:34:38.646Z,66.30
2023-01-05T03:38:02.410Z,60.13
2023-01-05T03:41:05.929Z,62.00
2023-01-05T03:44:08.451Z,61.43
2023-01-05T03:47:14.191Z,59.27
2023-01-05T03:50:17.742Z,62.70
2023-01-05T03:53:19.430Z,63.23
2023-01-05T03:56:21.439Z,69.63
2023-01-05T03:59:23.206Z,77.80
2023-01-05T04:02:26.265Z,68.30
2023-01-05T04:05:28.300Z,64.83
2023-01-05T04:08:30.525Z,66.37
2023-01-05T04:11:33.338Z,64.83
2023-01-05T04:14:39.370Z,58.60
2023-01-05T04:17:41.303Z,60.97
2023-01-05T04:20:46.262Z,65.70
2023-01-05T04:23:48.930Z,68.07
2023-01-05T04:26:51.306Z,63.57
2023-01-05T04:29:56.196Z,66.30
2023-01-05T04:32:58.353Z,67.33
2023-01-05T04:36:00.332Z,71.17
2023-01-05T04:39:04.377Z,76.50
2023-01-05T04:42:07.696Z,70.10
2023-01-05T04:45:10.528Z,71.20
2023-01-05T04:48:12.956Z,67.60
2023-01-05T04:51:14.950Z,67.57
2023-01-05T04:54:17.375Z,65.60
2023-01-05T04:57:19.305Z,70.40
2023-01-05T05:00:24.031Z,77.07
2023-01-05T05:03:32.950Z,65.07
2023-01-05T05:06:36.025Z,79.60
2023-01-05T05:09:37.729Z,94.17
2023-01-05T05:12:39.660Z,75.87
2023-01-05T05:15:44.127Z,82.33
2023-01-05T05:18:47.349Z,73.00
2023-01-05T05:21:53.681Z,71.17
2023-01-05T05:24:55.637Z,80.57
2023-01-05T05:27:57.754Z,79.73
2023-01-05T05:30:59.508Z,88.63
2023-01-05T05:34:02.859Z,99.33
2023-01-05T05:37:04.605Z,116.07
2023-01-05T05:40:06.562Z,93.73
2023-01-05T05:43:08.198Z,83.47
2023-01-05T05:46:09.862Z,87.00
2023-01-05T05:49:11.636Z,96.87
2023-01-05T05:52:13.238Z,91.50
2023-01-05T05:55:15.012Z,110.63
2023-01-05T05:58:17.492Z,107.13
2023-01-05T06:01:19.121Z,107.90
2023-01-05T06:04:20.851Z,120.43
2023-01-05T06:07:22.651Z,151.27
2023-01-05T06:10:24.278Z,120.23
2023-01-05T06:13:26.054Z,108.13
2023-01-05T06:16:27.737Z,112.00
2023-01-05T06:19:29.461Z,116.27
2023-01-05T06:22:31.079Z,115.87
2023-01-05T06:25:33.044Z,103.60
2023-01-05T06:28:34.801Z,71.73
2023-01-05T06:31:36.541Z,80.50
2023-01-05T06:34:38.233Z,80.07
2023-01-05T06:37:39.909Z,77.57
2023-01-05T06:40:44.399Z,87.47
2023-01-05T06:43:46.414Z,98.03
2023-01-05T06:46:48.008Z,93.20
2023-01-05T06:49:49.699Z,83.30
2023-01-05T06:52:51.371Z,107.50
2023-01-05T06:55:53.113Z,100.30
2023-01-05T06:58:54.802Z,87.40
2023-01-05T07:01:56.558Z,83.80
2023-01-05T07:04:58.308Z,98.17
2023-01-05T07:08:00.017Z,99.93
2023-01-05T07:11:01.614Z,91.53
2023-01-05T07:14:03.383Z,75.47
2023-01-05T07:17:05.285Z,87.43
2023-01-05T07:20:08.031Z,81.17
2023-01-05T07:23:09.813Z,79.13
2023-01-05T07:26:11.401Z,81.37
2023-01-05T07:29:13.130Z,70.10
2023-01-05T07:32:14.900Z,72.27
2023-01-05T07:35:16.511Z,79.00
2023-01-05T07:38:18.169Z,69.80
2023-01-05T07:41:19.895Z,59.80
2023-01-05T07:44:21.634Z,63.33
2023-01-05T07:47:23.255Z,72.43
2023-01-05T07:50:24.870Z,66.83
2023-01-05T07:53:26.634Z,53.83
2023-01-05T07:56:28.314Z,49.37
2023-01-05T07:59:29.922Z,50.43
2023-01-05T08:02:35.867Z,52.77
2023-01-05T08:05:37.939Z,52.80
2023-01-05T08:08:39.917Z,34.47
2023-01-05T08:11:41.529Z,30.70
2023-01-05T08:14:43.207Z,48.20
2023-01-05T08:17:44.823Z,37.67
2023-01-05T08:20:56.678Z,42.07
2023-01-05T08:23:59.860Z,44.37
2023-01-05T08:27:01.667Z,35.50
2023-01-05T08:30:03.565Z,31.70
2023-01-05T08:33:05.336Z,34.30
2023-01-05T08:36:11.386Z,36.40
2023-01-05T08:39:13.185Z,42.03
2023-01-05T08:42:14.839Z,52.97
2023-01-05T08:45:16.565Z,65.00
2023-01-05T08:48:18.358Z,47.87
2023-01-05T08:51:20.319Z,42.53
2023-01-05T08:54:21.972Z,49.13
2023-01-05T08:57:23.593Z,39.03
2023-01-05T09:00:25.151Z,44.50
2023-01-05T09:03:26.877Z,32.43
2023-01-05T09:06:29.012Z,29.60
2023-01-05T09:09:30.631Z,30.90
2023-01-05T09:12:33.457Z,33.97
2023-01-05T09:15:35.177Z,30.90
2023-01-05T09:18:37.003Z,53.37
2023-01-05T09:21:41.617Z,141.23
2023-01-05T09:24:43.381Z,47.33
2023-01-05T09:27:44.987Z,27.30
2023-01-05T09:30:50.610Z,45.00
2023-01-05T09:33:52.757Z,37.93
2023-01-05T09:36:54.408Z,41.60
2023-01-05T09:39:56.028Z,37.17
2023-01-05T09:42:57.754Z,30.80
2023-01-05T09:45:59.699Z,38.67
2023-01-05T09:49:03.266Z,25.23
2023-01-05T09:52:10.770Z,31.03
2023-01-05T09:55:17.483Z,19.30
2023-01-05T09:58:26.274Z,16.03
2023-01-05T10:01:32.866Z,20.43
2023-01-05T10:04:34.798Z,19.47
2023-01-05T10:07:39.748Z,16.47
2023-01-05T10:11:07.172Z,22.93
2023-01-05T10:14:20.097Z,22.30
2023-01-05T10:20:52.316Z,18.83
2023-01-05T10:24:09.435Z,13.97
2023-01-05T10:27:26.328Z,17.80
2023-01-05T10:30:46.392Z,16.80
2023-01-05T10:33:57.867Z,19.20
2023-01-05T10:37:17.770Z,20.30
2023-01-05T10:40:40.095Z,18.03
2023-01-05T10:43:53.753Z,17.23
2023-01-05T10:46:55.557Z,19.63
2023-01-05T10:49:58.290Z,19.33
2023-01-05T10:53:01.326Z,16.53
2023-01-05T10:56:07.622Z,17.23
2023-01-05T10:59:10.742Z,28.10
2023-01-05T11:02:12.555Z,19.40
2023-01-05T11:05:15.502Z,17.73
2023-01-05T11:08:21.939Z,21.57
2023-01-05T11:11:25.767Z,15.47
2023-01-05T11:14:28.054Z,17.33
2023-01-05T11:17:30.068Z,11.60
2023-01-05T11:20:31.715Z,12.13
2023-01-05T11:23:35.455Z,13.73
2023-01-05T11:26:38.014Z,12.13
2023-01-05T11:29:39.625Z,19.00
2023-01-05T11:32:44.701Z,16.43
2023-01-05T11:35:46.447Z,18.07
2023-01-05T11:38:55.813Z,30.17
2023-01-05T11:42:09.612Z,14.10
2023-01-05T11:45:17.366Z,17.37
2023-01-05T11:48:26.330Z,14.00
2023-01-05T11:51:35.447Z,13.07
2023-01-05T11:54:38.288Z,14.40
2023-01-05T11:57:39.908Z,12.23
2023-01-05T12:00:50.956Z,19.63
2023-01-05T12:03:58.515Z,11.43
2023-01-05T12:07:19.003Z,14.03
2023-01-05T12:10:38.929Z,11.97
2023-01-05T12:13:49.857Z,29.53
2023-01-05T12:16:55.924Z,34.07
2023-01-05T12:20:03.765Z,14.17
2023-01-05T12:23:08.394Z,11.60
2023-01-05T12:26:18.621Z,10.60
2023-01-05T12:36:42.728Z,10.80
2023-01-05T12:40:19.869Z,24.20
2023-01-05T12:43:32.496Z,17.00
2023-01-05T12:46:37.209Z,13.73
2023-01-05T12:49:53.054Z,14.07
2023-01-05T12:52:58.236Z,11.80
2023-01-05T12:56:02.192Z,12.97
2023-01-05T12:59:07.254Z,14.13
2023-01-05T13:02:15.691Z,8.67
2023-01-05T13:05:21.809Z,28.27
2023-01-05T13:08:29.550Z,54.07
2023-01-05T13:11:36.229Z,14.90
2023-01-05T13:14:41.055Z,17.20
2023-01-05T13:17:48.518Z,14.57
2023-01-05T13:20:54.729Z,16.30
2023-01-05T13:24:06.702Z,20.23
2023-01-05T13:27:08.934Z,22.53
2023-01-05T13:30:27.421Z,19.57
2023-01-05T13:34:04.595Z,28.03
2023-01-05T13:37:21.223Z,17.53
2023-01-05T13:40:31.879Z,21.50
2023-01-05T13:43:52.493Z,21.47
2023-01-05T13:46:56.989Z,25.37
2023-01-05T13:50:17.224Z,28.10
2023-01-05T13:53:24.767Z,24.00
2023-01-05T13:56:27.981Z,26.00
2023-01-05T13:59:35.073Z,20.80
2023-01-05T14:02:45.470Z,27.13
2023-01-05T14:05:51.159Z,23.47
2023-01-05T14:12:16.787Z,32.93
2023-01-05T14:15:24.336Z,32.37
2023-01-05T14:18:44.653Z,26.77
2023-01-05T14:21:49.371Z,30.27
2023-01-05T14:24:52.434Z,39.53
2023-01-05T14:28:14.300Z,27.07
2023-01-05T14:31:19.036Z,38.87
2023-01-05T14:34:21.990Z,46.20
2023-01-05T14:37:35.923Z,33.87
2023-01-05T14:40:39.354Z,33.87
2023-01-05T14:43:41.197Z,29.87
2023-01-05T14:46:52.389Z,27.40
2023-01-05T14:50:03.480Z,38.87
2023-01-05T14:53:05.114Z,56.17
2023-01-05T14:56:07.039Z,51.43
2023-01-05T14:59:27.348Z,51.23
2023-01-05T15:02:31.167Z,57.43
2023-01-05T15:05:34.537Z,72.27
2023-01-05T15:08:36.202Z,52.17
2023-01-05T15:11:56.691Z,61.27
2023-01-05T15:15:17.149Z,68.10
2023-01-05T15:18:47.917Z,76.90
2023-01-05T15:22:13.269Z,102.17
2023-01-05T15:25:58.870Z,91.23
2023-01-05T15:29:14.113Z,57.37
2023-01-05T15:32:19.558Z,47.73
2023-01-05T15:35:22.031Z,57.07
2023-01-05T15:38:27.754Z,111.43
2023-01-05T15:41:29.441Z,68.03
2023-01-05T15:44:36.524Z,88.30
2023-01-05T15:47:39.061Z,89.60
2023-01-05T15:50:46.019Z,86.83
2023-01-05T15:53:52.822Z,94.13
2023-01-05T15:56:55.400Z,90.03
2023-01-05T15:59:57.095Z,105.57
2023-01-05T16:02:59.533Z,96.20
2023-01-05T16:06:24.567Z,82.13
2023-01-05T16:09:37.564Z,86.60
2023-01-05T16:12:39.472Z,80.63
2023-01-05T16:15:42.370Z,89.20
2023-01-05T16:18:48.556Z,89.00
2023-01-05T16:21:54.951Z,88.53
2023-01-05T16:25:07.889Z,83.07
2023-01-05T16:28:15.242Z,80.37
2023-01-05T16:31:32.762Z,86.20
2023-01-05T16:34:34.569Z,91.13
2023-01-05T16:37:36.202Z,60.03
2023-01-05T16:40:46.704Z,49.63
2023-01-05T16:43:53.067Z,50.03
2023-01-05T16:47:04.362Z,50.90
2023-01-05T16:50:29.023Z,37.50
2023-01-05T16:53:31.338Z,49.13
2023-01-05T16:56:33.158Z,61.80
2023-01-05T16:59:34.972Z,50.73
2023-01-05T17:02:47.033Z,45.93
2023-01-05T17:05:51.043Z,43.60
2023-01-05T17:08:53.510Z,32.60
2023-01-05T17:11:55.668Z,36.73
2023-01-05T17:15:01.988Z,43.57
2023-01-05T17:18:16.031Z,45.80
2023-01-05T17:21:19.141Z,44.30
2023-01-05T17:24:20.900Z,44.87
2023-01-05T17:27:22.736Z,114.80
2023-01-05T17:30:24.503Z,80.03
2023-01-05T17:33:26.315Z,69.50
2023-01-05T17:36:32.615Z,55.67
2023-01-05T17:39:34.826Z,41.67
2023-01-05T17:42:42.318Z,43.23
2023-01-05T17:45:44.597Z,35.53
2023-01-05T17:48:46.653Z,63.30
2023-01-05T17:51:48.595Z,45.10
2023-01-05T17:54:52.975Z,62.83
2023-01-05T17:57:55.038Z,22.70
2023-01-05T18:00:56.880Z,24.13
2023-01-05T18:03:58.704Z,24.57
2023-01-05T18:07:01.177Z,29.80
2023-01-05T18:10:03.120Z,32.03
2023-01-05T18:13:04.779Z,31.73
2023-01-05T18:16:08.056Z,33.47
2023-01-05T18:19:09.885Z,24.13
2023-01-05T18:22:11.642Z,29.83
2023-01-05T18:25:13.736Z,22.70
2023-01-05T18:28:15.450Z,23.50
2023-01-05T18:31:17.187Z,28.17
2023-01-05T18:34:18.874Z,26.63
2023-01-05T18:37:21.679Z,26.93
2023-01-05T18:40:23.840Z,29.70
2023-01-05T18:43:25.651Z,25.67
2023-01-05T18:46:28.832Z,19.90
2023-01-05T18:49:30.871Z,20.80
2023-01-05T18:52:33.540Z,20.10
2023-01-05T18:55:35.240Z,20.33
2023-01-05T18:58:37.084Z,38.60
2023-01-05T19:01:43.182Z,19.60
2023-01-05T19:04:44.945Z,27.57
2023-01-05T19:07:50.384Z,34.60
2023-01-05T19:10:54.936Z,37.57
2023-01-05T19:14:00.061Z,25.67
2023-01-05T19:17:01.953Z,35.03
2023-01-05T19:20:03.940Z,47.07
2023-01-05T19:23:05.628Z,45.63
2023-01-05T19:26:07.399Z,54.47
2023-01-05T19:29:12.323Z,60.63
2023-01-05T19:32:13.924Z,60.53
2023-01-05T19:35:15.664Z,64.17
2023-01-05T19:38:17.271Z,67.93
2023-01-05T19:41:20.894Z,71.13
2023-01-05T19:44:22.951Z,65.23
2023-01-05T19:47:24.544Z,62.07
2023-01-05T19:50:26.173Z,55.77
2023-01-05T19:53:27.954Z,79.37
2023-01-05T19:56:33.910Z,55.07
2023-01-05T19:59:36.281Z,47.27
2023-01-05T20:02:40.152Z,46.90
2023-01-05T20:05:42.133Z,39.77
2023-01-05T20:08:44.851Z,29.67
2023-01-05T20:11:48.849Z,45.00
2023-01-05T20:14:50.617Z,33.47
2023-01-05T20:17:52.372Z,41.20
2023-01-05T20:21:01.286Z,33.47
2023-01-05T20:24:06.550Z,38.17
2023-01-05T20:27:12.799Z,41.43
2023-01-05T20:30:14.487Z,37.07
2023-01-05T20:33:16.276Z,41.70
2023-01-05T20:36:18.485Z,44.03
2023-01-05T20:39:22.309Z,43.20
2023-01-05T20:42:24.214Z,49.37
2023-01-05T20:45:26.012Z,65.90
2023-01-05T20:48:30.931Z,37.80
2023-01-05T20:51:32.890Z,41.20
2023-01-05T20:54:37.658Z,35.87
2023-01-05T20:57:39.319Z,50.00
2023-01-05T21:01:11.252Z,55.80
2023-01-05T21:04:03.201Z,41.13
2023-01-05T21:07:04.979Z,47.53
2023-01-05T21:10:06.951Z,60.00
2023-01-05T21:13:31.562Z,57.37
2023-01-05T21:16:32.790Z,43.90
2023-01-05T21:19:34.470Z,43.00
2023-01-05T21:22:36.170Z,41.63
2023-01-05T21:26:06.217Z,44.13
2023-01-05T21:29:05.885Z,38.87
2023-01-05T21:32:07.512Z,44.00
2023-01-05T21:35:09.361Z,47.87
2023-01-05T21:38:13.675Z,44.23
2023-01-05T21:41:15.575Z,51.23
2023-01-05T21:44:17.500Z,46.63
2023-01-05T21:47:19.044Z,55.43
2023-01-05T21:50:39.320Z,21.73
2023-01-05T21:53:59.706Z,43.63
2023-01-05T21:57:01.586Z,36.70
2023-01-05T22:00:04.340Z,46.87
2023-01-05T22:03:06.599Z,41.67
2023-01-05T22:06:08.372Z,38.73
2023-01-05T22:09:10.047Z,16.60
2023-01-05T22:12:11.738Z,32.87
2023-01-05T22:15:13.349Z,46.17
2023-01-05T22:18:14.953Z,37.60
2023-01-05T22:21:17.076Z,28.77
2023-01-05T22:24:19.350Z,35.47
2023-01-05T22:27:21.003Z,33.73
2023-01-05T22:30:22.544Z,40.60
2023-01-05T22:33:24.102Z,22.40
2023-01-05T22:36:27.105Z,13.57
2023-01-05T22:39:28.796Z,14.37
2023-01-05T22:42:30.334Z,8.57
2023-01-05T22:45:32.468Z,9.33
2023-01-05T22:48:34.631Z,8.40
2023-01-05T22:51:37.632Z,9.10
2023-01-05T22:54:40.192Z,13.20
2023-01-05T22:57:41.889Z,11.97
2023-01-05T23:00:43.600Z,10.37
2023-01-05T23:03:45.672Z,7.53
2023-01-05T23:06:47.479Z,10.37
2023-01-05T23:09:49.151Z,11.97
2023-01-05T23:12:50.877Z,9.43
2023-01-05T23:15:53.366Z,11.23
2023-01-05T23:18:55.014Z,9.37
2023-01-05T23:21:56.844Z,8.03
2023-01-05T23:24:58.479Z,7.43
2023-01-05T23:28:00.101Z,6.37
2023-01-05T23:31:01.786Z,8.17
2023-01-05T23:34:03.439Z,7.23
2023-01-05T23:37:05.082Z,7.97
2023-01-05T23:40:07.002Z,8.77
2023-01-05T23:43:09.096Z,7.20
2023-01-05T23:46:12.287Z,6.90
2023-01-05T23:49:13.923Z,7.13
2023-01-05T23:52:15.528Z,7.47
2023-01-05T23:55:17.157Z,7.13
2023-01-05T23:58:18.860Z,6.87
